Time;durP1;ratioP1;P1;durP2;ratioP2;P2;SDS_P1;SDS_P2;PMS_P1;PMS_P2;Temp;Humidity;BMP_temperature;BMP_pressure;BME280_temperature;BME280_humidity;BME280_pressure;Samples;Min_cycle;Max_cycle;Signal;HPM_P1;HPM_P2
2023/03/17 00:01:56;;;;;;;8.60;7.70;;;22.80;67.70;;;;;;6081820;28;89417;-71
2023/03/17 00:05:00;;;;;;;8.13;7.32;;;22.70;67.70;;;;;;6083882;28;88470;-72
2023/03/17 00:08:07;;;;;;;8.35;7.47;;;22.70;67.70;;;;;;6075584;28;89233;-72
2023/03/17 00:11:12;;;;;;;8.40;7.60;;;22.70;67.80;;;;;;6087225;28;89276;-73
2023/03/17 00:14:15;;;;;;;8.68;7.78;;;22.70;67.80;;;;;;6086533;28;89969;-72
2023/03/17 00:17:17;;;;;;;8.30;7.50;;;22.70;67.90;;;;;;6083583;28;89042;-72
2023/03/17 00:20:25;;;;;;;8.13;7.32;;;22.70;67.90;;;;;;6085825;28;89229;-73
2023/03/17 00:23:27;;;;;;;8.35;7.53;;;22.70;67.90;;;;;;6086779;28;89427;-72
2023/03/17 00:26:29;;;;;;;8.43;7.60;;;22.70;67.80;;;;;;6086231;28;89057;-73
2023/03/17 00:29:31;;;;;;;7.82;7.03;;;22.70;67.80;;;;;;6088022;28;89041;-72
2023/03/17 00:32:33;;;;;;;8.57;7.47;;;22.70;67.90;;;;;;6084009;28;89108;-72
2023/03/17 00:35:39;;;;;;;8.55;7.70;;;22.70;67.80;;;;;;6087569;28;88247;-72
2023/03/17 00:38:41;;;;;;;8.45;7.60;;;22.60;67.70;;;;;;6086321;28;88147;-72
2023/03/17 00:41:43;;;;;;;8.18;7.38;;;22.60;67.70;;;;;;6084870;28;89187;-72
2023/03/17 00:44:46;;;;;;;8.30;7.50;;;22.60;67.70;;;;;;6085371;28;90107;-72
2023/03/17 00:47:49;;;;;;;8.68;7.80;;;22.60;67.70;;;;;;6086267;28;89111;-72
2023/03/17 00:50:53;;;;;;;8.30;7.50;;;22.60;67.90;;;;;;6087128;28;89087;-72
2023/03/17 00:53:55;;;;;;;7.85;7.05;;;22.60;67.80;;;;;;6077557;28;89014;-71
2023/03/17 00:56:57;;;;;;;8.00;7.25;;;22.60;67.90;;;;;;6086233;28;89497;-72
2023/03/17 01:00:00;;;;;;;7.40;6.70;;;22.50;67.70;;;;;;6081209;28;89057;-72
2023/03/17 01:03:02;;;;;;;8.07;7.38;;;22.60;67.70;;;;;;6080926;28;89110;-72
2023/03/17 01:06:08;;;;;;;8.15;7.35;;;22.60;67.70;;;;;;6086701;28;87602;-72
2023/03/17 01:09:14;;;;;;;8.23;7.05;;;22.60;67.70;;;;;;6086244;28;89062;-72
2023/03/17 01:12:17;;;;;;;7.78;7.03;;;22.50;67.70;;;;;;6086745;28;89394;-71
2023/03/17 01:15:20;;;;;;;7.60;6.85;;;22.60;67.80;;;;;;6085473;28;90344;-71
2023/03/17 01:18:22;;;;;;;7.80;7.00;;;22.50;67.60;;;;;;6081301;28;89263;-72
2023/03/17 01:21:26;;;;;;;8.48;7.57;;;22.50;67.70;;;;;;6083703;28;89436;-73
2023/03/17 01:24:28;;;;;;;8.00;7.20;;;22.50;67.70;;;;;;6085654;28;89132;-71
2023/03/17 01:27:35;;;;;;;7.30;6.60;;;22.50;67.70;;;;;;6077452;28;89130;-71
2023/03/17 01:30:39;;;;;;;7.60;6.80;;;22.50;67.70;;;;;;6082883;28;89100;-71
2023/03/17 01:33:41;;;;;;;7.55;6.70;;;22.50;67.70;;;;;;6096846;28;89196;-73
2023/03/17 01:36:45;;;;;;;8.07;7.28;;;22.50;67.60;;;;;;6070604;28;88387;-72
2023/03/17 01:39:47;;;;;;;7.40;6.70;;;22.50;67.60;;;;;;6077680;28;89578;-71
2023/03/17 01:42:53;;;;;;;7.22;6.53;;;22.50;67.60;;;;;;6070166;28;89403;-72
2023/03/17 01:46:26;;;;;;;7.03;6.32;;;22.50;67.70;;;;;;6072885;28;90092;-71
2023/03/17 01:49:30;;;;;;;7.38;6.57;;;22.40;67.60;;;;;;6081205;28;89143;-72
2023/03/17 01:52:36;;;;;;;7.65;6.90;;;22.40;67.70;;;;;;6081389;28;89171;-72
2023/03/17 01:55:39;;;;;;;7.07;6.38;;;22.40;67.60;;;;;;6074437;28;89073;-71
2023/03/17 01:58:43;;;;;;;6.55;5.95;;;22.40;67.60;;;;;;6084878;28;88460;-72
2023/03/17 02:01:48;;;;;;;6.93;6.22;;;22.40;67.60;;;;;;6072734;28;89142;-71
2023/03/17 02:04:51;;;;;;;7.20;6.50;;;22.40;67.60;;;;;;6082868;28;88373;-71
2023/03/17 02:07:55;;;;;;;8.25;6.80;;;22.40;67.70;;;;;;6079977;28;88433;-72
2023/03/17 02:10:58;;;;;;;6.82;6.20;;;22.40;67.70;;;;;;6082917;28;89082;-71
2023/03/17 02:14:00;;;;;;;6.53;5.93;;;22.40;67.60;;;;;;6076415;28;89199;-71
2023/03/17 02:17:02;;;;;;;6.63;6.03;;;22.40;67.60;;;;;;6082117;28;90235;-72
2023/03/17 02:20:47;;;;;;;6.60;6.00;;;22.30;67.50;;;;;;6081888;28;88487;-72
2023/03/17 02:23:50;;;;;;;6.70;6.05;;;22.40;67.50;;;;;;6093765;28;89374;-72
2023/03/17 02:26:55;;;;;;;6.50;5.90;;;22.30;67.50;;;;;;6080220;28;89092;-72
2023/03/17 02:29:58;;;;;;;6.50;5.90;;;22.40;67.60;;;;;;6073393;28;89420;-71
2023/03/17 02:33:01;;;;;;;6.18;5.57;;;22.30;67.50;;;;;;6082886;28;89121;-72
2023/03/17 02:36:03;;;;;;;6.30;5.70;;;22.30;67.50;;;;;;6084201;28;89182;-75
2023/03/17 02:39:07;;;;;;;6.78;6.07;;;22.30;67.50;;;;;;6075564;28;88272;-74
2023/03/17 02:42:11;;;;;;;6.65;5.97;;;22.30;67.50;;;;;;6091144;28;87994;-75
2023/03/17 02:45:14;;;;;;;6.50;5.90;;;22.30;67.50;;;;;;6085534;28;89198;-72
2023/03/17 02:48:16;;;;;;;6.72;6.03;;;22.30;67.40;;;;;;6086438;28;90023;-73
2023/03/17 02:51:19;;;;;;;7.25;6.55;;;22.30;67.40;;;;;;6082841;28;89040;-73
2023/03/17 02:54:22;;;;;;;6.95;6.25;;;22.30;67.40;;;;;;6083217;28;89255;-72
2023/03/17 02:57:24;;;;;;;7.20;6.50;;;22.20;67.30;;;;;;6083787;28;89127;-73
2023/03/17 03:00:27;;;;;;;6.95;6.25;;;22.30;67.40;;;;;;6084059;28;89088;-72
2023/03/17 03:03:29;;;;;;;7.25;6.55;;;22.20;67.30;;;;;;6083510;28;89326;-72
2023/03/17 03:06:31;;;;;;;6.60;6.00;;;22.20;67.30;;;;;;6085346;28;89099;-73
2023/03/17 03:09:35;;;;;;;7.07;6.38;;;22.20;67.30;;;;;;6083209;28;87265;-73
2023/03/17 03:12:37;;;;;;;7.75;6.75;;;22.20;67.40;;;;;;6083275;28;89419;-73
2023/03/17 03:15:41;;;;;;;7.68;6.85;;;22.20;67.30;;;;;;6086201;28;88588;-72
2023/03/17 03:18:43;;;;;;;8.05;7.25;;;22.20;67.30;;;;;;6082564;28;90034;-72
2023/03/17 03:21:46;;;;;;;7.72;6.93;;;22.20;67.30;;;;;;6075095;28;89188;-72
2023/03/17 03:24:49;;;;;;;8.32;7.53;;;22.20;67.30;;;;;;6079266;28;89257;-73
2023/03/17 03:27:51;;;;;;;7.63;6.93;;;22.10;67.20;;;;;;6071408;28;89059;-73
2023/03/17 03:30:53;;;;;;;9.10;7.75;;;22.20;67.20;;;;;;6096059;28;89096;-72
2023/03/17 03:33:55;;;;;;;8.25;7.45;;;22.20;67.20;;;;;;6081449;28;88854;-74
2023/03/17 03:36:57;;;;;;;8.25;7.45;;;22.20;67.20;;;;;;6083061;28;89120;-73
2023/03/17 03:40:01;;;;;;;8.02;7.22;;;22.20;67.20;;;;;;6092200;28;88423;-72
2023/03/17 03:43:03;;;;;;;7.97;7.18;;;22.10;67.10;;;;;;6087014;28;89200;-73
2023/03/17 03:46:05;;;;;;;8.70;7.80;;;22.20;67.20;;;;;;6083814;28;88967;-73
2023/03/17 03:49:07;;;;;;;8.30;7.50;;;22.10;67.10;;;;;;6082980;28;89992;-73
2023/03/17 03:52:09;;;;;;;8.50;7.57;;;22.10;67.20;;;;;;6080794;28;89110;-73
2023/03/17 03:55:13;;;;;;;8.70;7.90;;;22.10;67.20;;;;;;6099875;28;89473;-72
2023/03/17 03:58:15;;;;;;;9.25;8.23;;;22.10;67.20;;;;;;6092758;28;87997;-72
2023/03/17 04:01:17;;;;;;;9.35;8.35;;;22.10;67.10;;;;;;6081295;28;89188;-73
2023/03/17 04:04:20;;;;;;;9.68;8.05;;;22.10;67.10;;;;;;6075488;28;87866;-73
2023/03/17 04:07:22;;;;;;;8.52;7.60;;;22.10;67.10;;;;;;6095296;28;89074;-73
2023/03/17 04:10:26;;;;;;;9.15;8.25;;;22.10;67.10;;;;;;6084366;28;88687;-73
2023/03/17 04:13:28;;;;;;;8.70;7.80;;;22.10;67.10;;;;;;6086663;28;88168;-73
2023/03/17 04:16:30;;;;;;;8.63;7.82;;;22.10;68.10;;;;;;6074204;28;89015;-73
2023/03/17 04:19:32;;;;;;;8.57;7.78;;;22.00;67.00;;;;;;6082955;28;90329;-73
2023/03/17 04:22:34;;;;;;;8.93;8.00;;;22.00;67.10;;;;;;6090854;28;87993;-72
2023/03/17 04:25:37;;;;;;;9.05;8.15;;;22.00;67.10;;;;;;6094803;28;89188;-71
2023/03/17 04:28:39;;;;;;;8.88;7.97;;;22.00;67.10;;;;;;6084525;28;88102;-72
2023/03/17 04:31:42;;;;;;;9.15;8.15;;;22.00;67.10;;;;;;6069507;28;89104;-72
2023/03/17 04:34:44;;;;;;;8.50;7.70;;;22.00;67.00;;;;;;6069146;28;89252;-73
2023/03/17 04:37:47;;;;;;;8.95;8.05;;;22.00;67.10;;;;;;6078943;28;89117;-72
2023/03/17 04:40:51;;;;;;;8.93;8.02;;;22.00;67.00;;;;;;6070557;28;88433;-72
2023/03/17 04:43:53;;;;;;;9.13;8.23;;;22.00;67.00;;;;;;6063097;28;89166;-72
2023/03/17 04:46:55;;;;;;;9.10;8.20;;;22.00;66.90;;;;;;6066333;28;89414;-72
2023/03/17 04:49:57;;;;;;;7.93;7.22;;;22.00;66.70;;;;;;6061818;28;90128;-71
2023/03/17 04:52:59;;;;;;;8.68;7.65;;;22.00;66.60;;;;;;6066047;28;87774;-72
2023/03/17 04:56:03;;;;;;;9.23;8.30;;;22.00;66.60;;;;;;6074939;28;89174;-72
2023/03/17 04:59:05;;;;;;;9.20;8.23;;;22.00;66.60;;;;;;6062376;28;89146;-72
2023/03/17 05:02:07;;;;;;;8.05;7.25;;;22.00;67.40;;;;;;6072766;28;89565;-72
2023/03/17 05:05:09;;;;;;;8.40;7.60;;;22.00;66.50;;;;;;6075394;28;89182;-73
2023/03/17 05:08:11;;;;;;;8.68;7.78;;;22.00;66.40;;;;;;6063664;28;89258;-72
2023/03/17 05:11:15;;;;;;;7.88;7.10;;;22.00;66.40;;;;;;6063064;28;87290;-72
2023/03/17 05:14:18;;;;;;;8.18;7.38;;;22.00;66.30;;;;;;6060970;28;89135;-71
2023/03/17 05:17:20;;;;;;;8.63;7.78;;;22.00;66.30;;;;;;6062092;28;88064;-72
2023/03/17 05:20:22;;;;;;;8.82;7.93;;;22.00;66.30;;;;;;6072546;28;90017;-73
2023/03/17 05:23:24;;;;;;;8.00;7.20;;;22.10;66.40;;;;;;6065801;28;89055;-72
2023/03/17 05:26:28;;;;;;;7.85;7.05;;;22.10;66.40;;;;;;6067415;28;89054;-73
2023/03/17 05:29:30;;;;;;;8.02;7.22;;;22.10;66.30;;;;;;6073140;28;89113;-71
2023/03/17 05:32:32;;;;;;;7.20;6.50;;;22.10;66.20;;;;;;6070394;28;87978;-73
2023/03/17 05:35:34;;;;;;;7.70;6.88;;;22.10;66.20;;;;;;6067991;28;89129;-73
2023/03/17 05:38:36;;;;;;;7.63;6.15;;;22.10;66.20;;;;;;6073680;28;89211;-72
2023/03/17 05:41:40;;;;;;;7.70;6.03;;;22.10;65.40;;;;;;6075127;28;88352;-72
2023/03/17 05:44:42;;;;;;;7.05;6.22;;;22.10;63.80;;;;;;6057140;28;89383;-73
2023/03/17 05:47:44;;;;;;;8.13;6.82;;;22.10;63.30;;;;;;6069871;28;89317;-72
2023/03/17 05:50:46;;;;;;;6.88;6.00;;;22.10;63.50;;;;;;6063453;28;88938;-73
2023/03/17 05:53:49;;;;;;;7.43;5.93;;;22.10;63.70;;;;;;6068763;28;90627;-72
2023/03/17 05:56:52;;;;;;;6.90;6.20;;;22.10;63.60;;;;;;6063505;28;89777;-72
2023/03/17 05:59:54;;;;;;;8.48;6.45;;;22.10;63.60;;;;;;6069935;28;88995;-71
2023/03/17 06:02:56;;;;;;;7.00;5.97;;;22.10;63.60;;;;;;6067379;28;89056;-72
2023/03/17 06:05:58;;;;;;;8.23;6.30;;;22.10;63.70;;;;;;6061764;28;89016;-72
2023/03/17 06:09:01;;;;;;;6.45;5.72;;;22.10;63.70;;;;;;6073705;28;89069;-72
2023/03/17 06:12:05;;;;;;;7.40;6.13;;;22.20;63.80;;;;;;6074512;28;89833;-72
2023/03/17 06:15:08;;;;;;;6.63;5.72;;;22.20;63.80;;;;;;6060525;28;89033;-72
2023/03/17 06:18:10;;;;;;;6.82;5.90;;;22.10;63.80;;;;;;6064795;28;89108;-72
2023/03/17 06:21:13;;;;;;;6.18;5.57;;;22.20;63.90;;;;;;6066360;28;89962;-74
2023/03/17 06:24:15;;;;;;;6.72;6.03;;;22.20;63.90;;;;;;6059989;28;87983;-72
2023/03/17 06:27:18;;;;;;;6.60;5.82;;;22.10;64.00;;;;;;6062477;28;89300;-73
2023/03/17 06:30:21;;;;;;;6.50;5.75;;;22.20;64.00;;;;;;6064890;28;89077;-72
2023/03/17 06:33:23;;;;;;;7.20;5.65;;;22.20;64.00;;;;;;6055852;28;89195;-72
2023/03/17 06:36:25;;;;;;;5.85;5.25;;;22.20;64.00;;;;;;6061959;28;89127;-73
2023/03/17 06:39:28;;;;;;;5.65;5.15;;;22.20;63.90;;;;;;6067269;28;89592;-73
2023/03/17 06:42:31;;;;;;;6.50;5.30;;;22.20;63.90;;;;;;6063511;28;88670;-73
2023/03/17 06:45:33;;;;;;;6.20;5.60;;;22.20;63.90;;;;;;6064325;28;91033;-73
2023/03/17 06:48:36;;;;;;;6.07;5.38;;;22.20;64.00;;;;;;6077263;28;89503;-73
2023/03/17 06:51:38;;;;;;;5.90;5.30;;;22.20;64.00;;;;;;6059808;28;90107;-74
2023/03/17 06:54:41;;;;;;;5.88;5.07;;;22.20;64.00;;;;;;6062938;28;87982;-73
2023/03/17 06:57:44;;;;;;;6.85;5.38;;;22.20;64.00;;;;;;6064229;28;88289;-73
2023/03/17 07:00:47;;;;;;;5.78;5.18;;;22.20;64.10;;;;;;6064747;28;89294;-72
2023/03/17 07:03:49;;;;;;;7.00;5.32;;;22.20;64.10;;;;;;6064691;28;92164;-73
2023/03/17 07:06:51;;;;;;;5.50;5.00;;;22.20;64.20;;;;;;6054649;28;89110;-72
2023/03/17 07:09:53;;;;;;;5.63;5.03;;;22.20;64.20;;;;;;6064664;28;89023;-73
2023/03/17 07:12:57;;;;;;;5.32;4.68;;;22.20;64.20;;;;;;6064017;28;88300;-73
2023/03/17 07:15:59;;;;;;;5.70;4.85;;;22.30;64.20;;;;;;6068459;28;89149;-72
2023/03/17 07:19:02;;;;;;;5.65;4.75;;;22.30;64.20;;;;;;6069557;28;89038;-74
2023/03/17 07:22:04;;;;;;;5.78;5.15;;;22.30;64.20;;;;;;6065440;28;89373;-72
2023/03/17 07:25:06;;;;;;;5.22;4.72;;;22.30;64.30;;;;;;6069782;28;89099;-73
2023/03/17 07:28:10;;;;;;;5.57;5.05;;;22.30;64.20;;;;;;6064547;28;88008;-73
2023/03/17 07:31:13;;;;;;;5.95;5.35;;;22.20;64.20;;;;;;6066995;28;89165;-73
2023/03/17 07:34:15;;;;;;;5.30;4.60;;;22.20;64.30;;;;;;6063683;28;89147;-73
2023/03/17 07:37:18;;;;;;;5.13;4.63;;;22.20;64.40;;;;;;6070816;28;89858;-73
2023/03/17 07:40:20;;;;;;;5.40;4.20;;;22.20;64.40;;;;;;6065684;28;90040;-73
2023/03/17 07:43:24;;;;;;;5.03;4.53;;;22.20;64.50;;;;;;6051378;28;88219;-73
2023/03/17 07:46:26;;;;;;;5.10;4.57;;;22.20;64.50;;;;;;6070319;28;89190;-73
2023/03/17 07:49:28;;;;;;;4.60;4.20;;;22.20;64.50;;;;;;6068259;28;89069;-74
2023/03/17 07:52:30;;;;;;;7.82;5.72;;;22.30;64.50;;;;;;6065731;28;89885;-73
2023/03/17 07:55:32;;;;;;;4.75;4.35;;;22.30;64.50;;;;;;6075880;28;89401;-73
2023/03/17 07:58:36;;;;;;;5.68;4.35;;;22.30;64.40;;;;;;6072515;28;89565;-73
2023/03/17 08:01:38;;;;;;;4.68;4.18;;;22.30;64.50;;;;;;6065233;28;89120;-73
2023/03/17 08:04:40;;;;;;;4.78;4.28;;;22.30;64.50;;;;;;6066708;28;89667;-73
2023/03/17 08:07:43;;;;;;;4.68;4.13;;;22.30;64.50;;;;;;6065965;28;89167;-72
2023/03/17 08:10:45;;;;;;;4.97;4.35;;;22.40;64.70;;;;;;6066546;28;89320;-73
2023/03/17 08:13:49;;;;;;;4.55;4.15;;;22.40;64.80;;;;;;6065307;28;88485;-72
2023/03/17 08:16:52;;;;;;;4.43;3.85;;;22.30;64.70;;;;;;6067264;28;89102;-73
2023/03/17 08:19:55;;;;;;;4.85;4.13;;;22.30;64.70;;;;;;6075055;28;88474;-74
2023/03/17 08:22:57;;;;;;;4.72;4.28;;;22.30;64.70;;;;;;6073126;28;90071;-74
2023/03/17 08:26:02;;;;;;;4.95;4.45;;;22.30;64.80;;;;;;6072459;28;88003;-73
2023/03/17 08:29:06;;;;;;;4.85;4.13;;;22.30;64.90;;;;;;6063973;28;89592;-72
2023/03/17 08:32:09;;;;;;;4.03;3.38;;;22.40;64.80;;;;;;6074858;28;87964;-73
2023/03/17 08:35:14;;;;;;;4.30;3.90;;;22.30;64.70;;;;;;6071129;28;89183;-74
2023/03/17 08:38:16;;;;;;;4.03;3.63;;;22.40;64.80;;;;;;6072496;28;88959;-72
2023/03/17 08:41:22;;;;;;;4.10;3.70;;;22.40;64.80;;;;;;6064068;28;89144;-73
2023/03/17 08:44:26;;;;;;;4.93;4.18;;;22.30;64.90;;;;;;6064559;28;88160;-73
2023/03/17 08:47:28;;;;;;;4.20;3.80;;;22.30;65.80;;;;;;6071462;28;89200;-74
2023/03/17 08:50:31;;;;;;;4.60;3.95;;;22.30;65.00;;;;;;6063575;28;89093;-73
2023/03/17 08:53:34;;;;;;;4.55;3.72;;;22.40;65.10;;;;;;6063770;28;89981;-73
2023/03/17 08:56:36;;;;;;;4.22;3.83;;;22.30;65.10;;;;;;6065610;28;88998;-74
2023/03/17 08:59:40;;;;;;;5.18;3.72;;;22.30;65.10;;;;;;6066223;28;89472;-73
2023/03/17 09:02:43;;;;;;;4.43;3.80;;;22.30;65.20;;;;;;6063668;28;89049;-73
2023/03/17 09:05:45;;;;;;;4.10;3.58;;;22.30;65.10;;;;;;6076196;28;89080;-73
2023/03/17 09:08:51;;;;;;;3.72;3.17;;;22.30;65.00;;;;;;6072303;28;89167;-73
2023/03/17 09:11:53;;;;;;;4.00;3.60;;;22.30;65.00;;;;;;6062504;28;89171;-73
2023/03/17 09:14:56;;;;;;;4.40;3.67;;;22.30;65.00;;;;;;6070123;28;88292;-73
2023/03/17 09:17:58;;;;;;;4.90;3.90;;;22.30;65.10;;;;;;6078842;28;89162;-74
2023/03/17 09:21:02;;;;;;;4.38;3.80;;;22.30;65.10;;;;;;6073193;28;89194;-75
2023/03/17 09:24:04;;;;;;;4.45;3.78;;;22.30;65.20;;;;;;6064431;28;90350;-74
2023/03/17 09:27:06;;;;;;;3.72;3.40;;;22.30;65.40;;;;;;6050745;28;89111;-74
2023/03/17 09:30:12;;;;;;;3.17;2.83;;;22.30;65.40;;;;;;6061429;28;88965;-73
2023/03/17 09:33:15;;;;;;;3.72;3.38;;;22.40;65.40;;;;;;6073055;28;88904;-74
2023/03/17 09:36:17;;;;;;;3.90;3.30;;;22.40;65.40;;;;;;6062761;28;89279;-73
2023/03/17 09:39:21;;;;;;;4.05;3.53;;;22.30;65.40;;;;;;6062653;28;88983;-73
2023/03/17 09:42:42;;;;;;;3.97;3.58;;;22.30;65.40;;;;;;6062609;28;90361;-73
2023/03/17 09:45:45;;;;;;;4.57;3.58;;;22.30;65.20;;;;;;6076261;28;88359;-73
2023/03/17 09:49:03;;;;;;;4.18;3.55;;;22.40;65.20;;;;;;6072266;28;89142;-74
2023/03/17 09:52:10;;;;;;;5.03;3.78;;;22.40;65.20;;;;;;6062227;28;89059;-73
2023/03/17 09:55:20;;;;;;;4.07;3.50;;;22.40;65.30;;;;;;6061887;28;90002;-73
2023/03/17 09:58:29;;;;;;;3.70;3.20;;;22.40;65.30;;;;;;6062702;28;87996;-74
2023/03/17 10:01:33;;;;;;;4.28;3.33;;;22.40;65.40;;;;;;6062395;28;89348;-73
2023/03/17 10:04:35;;;;;;;3.90;3.50;;;22.40;65.50;;;;;;6061793;28;89391;-74
2023/03/17 10:07:44;;;;;;;4.32;3.22;;;22.40;65.50;;;;;;6062552;28;89385;-73
2023/03/17 10:10:50;;;;;;;3.95;3.17;;;22.30;65.50;;;;;;6060465;28;88061;-74
2023/03/17 10:13:57;;;;;;;3.63;3.05;;;22.40;65.50;;;;;;6065192;28;88362;-72
2023/03/17 10:17:09;;;;;;;3.72;2.92;;;22.30;65.50;;;;;;6061681;28;88344;-73
2023/03/17 10:20:16;;;;;;;3.88;3.15;;;22.40;65.60;;;;;;6069221;28;89116;-74
2023/03/17 10:23:20;;;;;;;4.63;3.25;;;22.40;65.50;;;;;;6065771;28;89164;-74
2023/03/17 10:26:29;;;;;;;3.65;2.97;;;22.40;65.50;;;;;;6060924;28;90332;-74
2023/03/17 10:29:31;;;;;;;3.55;2.83;;;22.40;65.50;;;;;;6069454;28;89048;-73
2023/03/17 10:32:39;;;;;;;3.80;3.40;;;22.50;65.50;;;;;;6059878;28;89127;-74
2023/03/17 10:35:43;;;;;;;3.47;2.85;;;22.40;65.50;;;;;;6070051;28;87735;-74
2023/03/17 10:38:52;;;;;;;3.92;2.95;;;22.40;65.60;;;;;;6067941;28;87933;-74
2023/03/17 10:41:57;;;;;;;3.45;2.88;;;22.40;65.70;;;;;;6069353;28;89739;-73
2023/03/17 10:45:06;;;;;;;3.47;3.10;;;22.40;65.60;;;;;;6062344;28;89176;-74
2023/03/17 10:48:11;;;;;;;3.85;3.10;;;22.40;65.70;;;;;;6074097;28;87297;-75
2023/03/17 10:51:22;;;;;;;3.47;2.88;;;22.40;65.70;;;;;;6070010;28;89105;-74
2023/03/17 10:54:25;;;;;;;3.88;3.00;;;22.40;65.70;;;;;;6071504;28;89099;-74
2023/03/17 10:57:28;;;;;;;3.15;2.78;;;22.40;65.70;;;;;;6060081;28;90362;-74
2023/03/17 11:00:35;;;;;;;3.90;3.17;;;22.40;65.70;;;;;;6058690;28;89352;-73
2023/03/17 11:03:40;;;;;;;3.17;2.63;;;22.50;65.70;;;;;;6060092;28;89055;-73
2023/03/17 11:06:43;;;;;;;3.35;2.70;;;22.40;65.50;;;;;;6069850;28;89177;-74
2023/03/17 11:09:50;;;;;;;2.95;2.65;;;22.40;65.50;;;;;;6068300;28;89356;-73
2023/03/17 11:12:59;;;;;;;3.28;2.70;;;22.40;65.50;;;;;;6076164;28;89375;-72
2023/03/17 11:16:10;;;;;;;3.38;2.85;;;22.40;65.50;;;;;;6068538;28;89067;-74
2023/03/17 11:19:17;;;;;;;3.40;2.72;;;22.40;65.60;;;;;;6060982;28;88671;-74
2023/03/17 11:22:29;;;;;;;3.08;2.78;;;22.40;65.70;;;;;;6063903;28;89077;-73
2023/03/17 11:25:34;;;;;;;3.20;2.70;;;22.40;65.70;;;;;;6067339;28;88038;-73
2023/03/17 11:28:41;;;;;;;3.55;2.80;;;22.40;65.70;;;;;;6076453;28;90199;-73
2023/03/17 11:31:50;;;;;;;3.55;2.78;;;22.40;65.70;;;;;;6066046;28;89103;-73
2023/03/17 11:35:08;;;;;;;3.58;3.00;;;22.40;65.90;;;;;;6068610;28;89053;-73
2023/03/17 11:38:24;;;;;;;3.05;2.75;;;22.40;65.70;;;;;;6057907;28;89580;-73
2023/03/17 11:41:44;;;;;;;2.78;2.45;;;22.40;65.70;;;;;;6054026;28;89109;-73
2023/03/17 11:45:02;;;;;;;3.55;2.85;;;22.40;65.50;;;;;;6072853;28;89139;-73
2023/03/17 11:48:21;;;;;;;3.60;2.75;;;22.40;65.60;;;;;;6073419;28;89413;-74
2023/03/17 11:51:30;;;;;;;3.58;2.58;;;22.50;65.70;;;;;;6061953;28;88366;-72
2023/03/17 11:54:46;;;;;;;2.75;2.30;;;22.40;65.70;;;;;;6078758;28;89159;-73
2023/03/17 11:57:53;;;;;;;2.92;2.47;;;22.40;65.70;;;;;;6081583;28;89075;-73
2023/03/17 12:00:59;;;;;;;2.88;2.50;;;22.50;66.70;;;;;;6067505;28;90398;-74
2023/03/17 12:04:10;;;;;;;3.25;2.45;;;22.50;65.70;;;;;;6075853;28;89093;-74
2023/03/17 12:07:20;;;;;;;2.72;2.30;;;22.50;65.70;;;;;;6063512;28;89809;-74
2023/03/17 12:10:25;;;;;;;3.80;2.60;;;22.50;65.70;;;;;;6066724;28;89202;-73
2023/03/17 12:13:38;;;;;;;3.05;2.50;;;22.50;65.80;;;;;;6085862;28;89474;-75
2023/03/17 12:16:43;;;;;;;2.42;2.22;;;22.50;65.70;;;;;;6058556;28;88012;-74
2023/03/17 12:20:04;;;;;;;2.92;2.50;;;22.50;65.70;;;;;;6068577;28;89172;-75
2023/03/17 12:23:16;;;;;;;3.00;2.60;;;22.50;65.60;;;;;;6063800;28;87425;-75
2023/03/17 12:26:20;;;;;;;2.70;2.40;;;22.50;65.70;;;;;;6062552;28;89424;-75
2023/03/17 12:29:30;;;;;;;2.95;2.65;;;22.40;65.60;;;;;;6063172;28;89117;-74
2023/03/17 12:32:39;;;;;;;3.97;2.63;;;22.50;65.80;;;;;;6073662;28;90041;-76
2023/03/17 12:35:41;;;;;;;3.30;2.38;;;22.40;65.70;;;;;;6065058;28;89012;-74
2023/03/17 12:38:49;;;;;;;3.33;2.75;;;22.40;65.70;;;;;;6081400;28;89077;-74
2023/03/17 12:42:27;;;;;;;2.63;2.08;;;22.40;65.80;;;;;;6055324;28;89356;-74
2023/03/17 12:45:45;;;;;;;2.67;2.30;;;22.40;65.90;;;;;;5991686;28;89092;-75
2023/03/17 12:49:13;;;;;;;2.50;2.25;;;22.30;65.80;;;;;;6063706;28;89168;-74
2023/03/17 12:52:33;;;;;;;2.50;2.10;;;22.40;65.90;;;;;;6064961;28;89395;-74
2023/03/17 12:55:37;;;;;;;2.28;2.05;;;22.30;65.90;;;;;;6078748;28;88396;-74
2023/03/17 12:58:42;;;;;;;2.28;2.08;;;22.40;66.10;;;;;;6064808;28;89401;-74
2023/03/17 13:01:47;;;;;;;3.25;2.40;;;22.40;66.10;;;;;;6063817;28;89423;-74
2023/03/17 13:04:56;;;;;;;3.95;2.78;;;22.30;66.00;;;;;;6065106;28;89199;-74
2023/03/17 13:08:01;;;;;;;2.88;2.25;;;22.40;66.10;;;;;;6064577;28;89389;-74
2023/03/17 13:11:19;;;;;;;3.17;2.35;;;22.30;66.00;;;;;;6072668;28;90440;-74
2023/03/17 13:14:26;;;;;;;3.05;2.35;;;22.30;66.00;;;;;;6065740;28;87956;-72
2023/03/17 13:17:33;;;;;;;2.20;2.00;;;22.30;66.00;;;;;;6062774;28;89347;-74
2023/03/17 13:20:43;;;;;;;2.20;2.00;;;22.30;66.00;;;;;;6074762;28;88242;-74
2023/03/17 13:23:47;;;;;;;2.63;1.90;;;22.30;66.00;;;;;;6068397;28;89153;-74
2023/03/17 13:26:57;;;;;;;2.15;1.95;;;22.30;66.00;;;;;;6070009;28;88514;-75
2023/03/17 13:30:00;;;;;;;2.15;1.90;;;22.30;66.00;;;;;;6075504;28;89233;-72
2023/03/17 13:33:22;;;;;;;2.00;1.80;;;22.30;66.00;;;;;;6069643;28;89285;-73
2023/03/17 13:36:38;;;;;;;2.20;1.95;;;22.40;66.00;;;;;;6071036;28;90228;-74
2023/03/17 13:40:11;;;;;;;2.30;2.10;;;22.40;66.00;;;;;;6072026;28;87795;-74
2023/03/17 13:43:31;;;;;;;2.10;1.90;;;22.30;66.10;;;;;;6062974;28;89273;-74
2023/03/17 13:46:42;;;;;;;2.35;2.10;;;22.40;66.10;;;;;;6072593;28;89411;-74
2023/03/17 13:49:49;;;;;;;2.35;2.13;;;22.40;66.10;;;;;;6067508;28;89286;-74
2023/03/17 13:52:56;;;;;;;2.30;2.10;;;22.30;66.00;;;;;;6063876;28;89138;-74
2023/03/17 13:56:17;;;;;;;3.20;2.00;;;22.30;66.00;;;;;;6068416;28;88365;-74
2023/03/17 13:59:23;;;;;;;2.13;1.92;;;22.30;66.00;;;;;;6064185;28;89223;-74
2023/03/17 14:02:30;;;;;;;2.00;1.77;;;22.30;66.00;;;;;;6062894;28;89414;-73
2023/03/17 14:05:36;;;;;;;2.53;2.00;;;22.30;66.00;;;;;;6064455;28;87879;-75
2023/03/17 14:08:47;;;;;;;1.90;1.70;;;22.30;66.00;;;;;;6062896;28;90057;-74
2023/03/17 14:11:51;;;;;;;2.30;2.10;;;22.30;66.00;;;;;;6065214;28;89061;-74
2023/03/17 14:15:03;;;;;;;2.55;1.90;;;22.30;66.00;;;;;;6060353;28;89325;-74
2023/03/17 14:18:10;;;;;;;2.38;1.90;;;22.30;66.00;;;;;;6054744;28;88355;-75
2023/03/17 14:21:21;;;;;;;2.42;1.90;;;22.40;66.10;;;;;;6061552;28;89128;-74
2023/03/17 14:24:25;;;;;;;2.10;1.90;;;22.30;66.00;;;;;;6064372;28;89268;-74
2023/03/17 14:27:30;;;;;;;2.33;2.00;;;22.40;66.10;;;;;;6066588;28;89123;-74
2023/03/17 14:30:35;;;;;;;2.08;1.88;;;22.30;66.00;;;;;;6064214;28;88650;-73
2023/03/17 14:33:39;;;;;;;2.05;1.85;;;22.40;66.10;;;;;;6064348;28;87996;-75
2023/03/17 14:36:41;;;;;;;1.95;1.70;;;22.40;66.10;;;;;;6069844;28;89391;-74
2023/03/17 14:39:48;;;;;;;2.00;1.80;;;22.30;66.00;;;;;;6065431;28;90079;-75
2023/03/17 14:42:50;;;;;;;2.63;2.13;;;22.40;66.10;;;;;;6059997;28;89122;-75
2023/03/17 14:46:00;;;;;;;1.80;1.70;;;22.30;66.00;;;;;;6066211;28;89139;-74
2023/03/17 14:49:05;;;;;;;2.22;1.80;;;22.30;66.00;;;;;;6064626;28;87987;-75
2023/03/17 14:52:15;;;;;;;2.25;2.03;;;22.30;66.90;;;;;;6063528;28;89047;-75
2023/03/17 14:55:18;;;;;;;1.88;1.63;;;22.30;66.00;;;;;;6061938;28;89074;-75
2023/03/17 14:58:25;;;;;;;2.75;1.85;;;22.30;66.10;;;;;;6081147;28;89271;-75
2023/03/17 15:01:37;;;;;;;2.15;1.95;;;22.30;66.10;;;;;;6062663;28;88548;-75
2023/03/17 15:04:51;;;;;;;2.28;1.83;;;22.30;66.00;;;;;;6061854;28;89369;-76
2023/03/17 15:07:53;;;;;;;2.03;1.83;;;22.40;66.10;;;;;;6073687;28;89190;-76
2023/03/17 15:10:58;;;;;;;1.90;1.55;;;22.30;66.10;;;;;;6068918;28;89323;-76
2023/03/17 15:14:11;;;;;;;2.42;1.80;;;22.30;66.10;;;;;;6068613;28;89104;-76
2023/03/17 15:17:18;;;;;;;1.70;1.60;;;22.30;66.20;;;;;;6068781;28;89121;-75
2023/03/17 15:20:21;;;;;;;2.00;1.80;;;22.30;66.10;;;;;;6065696;28;89099;-76
2023/03/17 15:23:28;;;;;;;1.90;1.70;;;22.30;66.10;;;;;;6065777;28;89073;-75
2023/03/17 15:26:31;;;;;;;1.90;1.70;;;22.30;66.10;;;;;;6060526;28;89080;-76
2023/03/17 15:29:33;;;;;;;2.53;1.77;;;22.30;66.10;;;;;;6075353;28;89824;-75
2023/03/17 15:32:37;;;;;;;2.15;1.70;;;22.30;66.10;;;;;;6079349;28;88296;-75
2023/03/17 15:35:39;;;;;;;1.52;1.42;;;22.30;66.10;;;;;;6070344;28;88935;-76
2023/03/17 15:38:41;;;;;;;2.25;1.75;;;22.30;66.10;;;;;;6071318;28;89298;-75
2023/03/17 15:41:43;;;;;;;1.80;1.58;;;22.30;66.10;;;;;;6058577;28;88067;-76
2023/03/17 15:44:45;;;;;;;2.90;1.92;;;22.30;66.10;;;;;;6070485;28;89394;-76
2023/03/17 15:47:49;;;;;;;1.70;1.40;;;22.30;66.20;;;;;;6070237;28;89502;-76
2023/03/17 15:50:52;;;;;;;2.15;1.70;;;22.30;66.20;;;;;;6057672;28;89162;-75
2023/03/17 15:53:54;;;;;;;2.28;1.70;;;22.30;66.20;;;;;;6076947;28;88980;-75
2023/03/17 15:56:56;;;;;;;2.22;1.77;;;22.30;66.20;;;;;;6070339;28;87969;-76
2023/03/17 15:59:58;;;;;;;2.92;1.58;;;22.30;66.20;;;;;;6062054;28;89213;-75
2023/03/17 16:03:07;;;;;;;1.98;1.63;;;22.30;66.10;;;;;;6061118;28;88360;-75
2023/03/17 16:06:16;;;;;;;2.05;1.60;;;22.30;66.10;;;;;;6062656;28;89291;-76